Time;durP1;ratioP1;P1;durP2;ratioP2;P2;SDS_P1;SDS_P2;PMS_P1;PMS_P2;Temp;Humidity;BMP_temperature;BMP_pressure;BME280_temperature;BME280_humidity;BME280_pressure;Samples;Min_cycle;Max_cycle;Signal;HPM_P1;HPM_P2
2022/01/08 00:00:17;;;;;;;;;;;;;;;;;;5041884;28;19931;-72
2022/01/08 00:02:44;;;;;;;;;;;;;;;;;;5036582;28;19917;-72
2022/01/08 00:05:13;;;;;;;;;;;;;;;;;;5044151;28;19909;-70
2022/01/08 00:07:39;;;;;;;;;;;;;;;;;;5041634;28;19921;-71
2022/01/08 00:10:06;;;;;;;;;;;;;;;;;;5028445;28;19913;-71
2022/01/08 00:12:35;;;;;;;;;;;;;;;;;;5031690;28;19981;-72
2022/01/08 00:15:06;;;;;;;;;;;;;;;;;;5024556;28;19966;-72
2022/01/08 00:17:33;;;;;;;;;;;;;;;;;;5026397;28;20577;-73
2022/01/08 00:19:59;;;;;;;;;;;;;;;;;;5027883;28;19970;-72
2022/01/08 00:22:25;;;;;;;;;;;;;;;;;;5036127;28;19948;-72
2022/01/08 00:24:58;;;;;;;;;;;;;;;;;;5024386;28;20356;-72
2022/01/08 00:27:24;;;;;;;;;;;;;;;;;;5023760;28;19917;-72
2022/01/08 00:29:51;;;;;;;;;;;;;;;;;;5043917;28;19958;-72
2022/01/08 00:32:17;;;;;;;;;;;;;;;;;;5025829;28;19913;-72
2022/01/08 00:34:44;;;;;;;;;;;;;;;;;;5041764;28;19917;-72
2022/01/08 00:37:10;;;;;;;;;;;;;;;;;;5029100;28;19925;-72
2022/01/08 00:39:37;;;;;;;;;;;;;;;;;;5026625;28;20212;-72
2022/01/08 00:42:03;;;;;;;;;;;;;;;;;;5026822;28;19917;-73
2022/01/08 00:44:32;;;;;;;;;;;;;;;;;;5031463;28;19928;-72
2022/01/08 00:46:59;;;;;;;;;;;;;;;;;;5044234;28;19917;-71
2022/01/08 00:49:25;;;;;;;;;;;;;;;;;;5044352;28;19927;-72
2022/01/08 00:51:51;;;;;;;;;;;;;;;;;;5037394;28;19921;-72
2022/01/08 00:54:18;;;;;;;;;;;;;;;;;;5034365;28;19970;-72
2022/01/08 00:56:48;;;;;;;;;;;;;;;;;;5027151;28;19928;-72
2022/01/08 00:59:15;;;;;;;;;;;;;;;;;;5036380;28;20315;-72
2022/01/08 01:01:41;;;;;;;;;;;;;;;;;;5046384;28;20011;-72
2022/01/08 01:04:11;;;;;;;;;;;;;;;;;;5035274;28;19913;-72
2022/01/08 01:06:37;;;;;;;;;;;;;;;;;;5041401;28;19921;-71
2022/01/08 01:09:06;;;;;;;;;;;;;;;;;;5036059;28;19961;-72
2022/01/08 01:11:33;;;;;;;;;;;;;;;;;;5045807;28;19917;-72
2022/01/08 01:13:59;;;;;;;;;;;;;;;;;;5044875;27;20335;-72
2022/01/08 01:16:26;;;;;;;;;;;;;;;;;;5034088;28;19917;-72
2022/01/08 01:18:53;;;;;;;;;;;;;;;;;;5035166;28;19943;-72
2022/01/08 01:21:19;;;;;;;;;;;;;;;;;;5027411;28;19960;-71
2022/01/08 01:23:47;;;;;;;;;;;;;;;;;;5034895;28;19917;-71
2022/01/08 01:26:18;;;;;;;;;;;;;;;;;;5027060;28;19966;-73
2022/01/08 01:28:52;;;;;;;;;;;;;;;;;;5026854;28;19913;-72
2022/01/08 01:47:06;;;;;;;;;;;;;;;;;;5029781;28;19961;-72
2022/01/08 01:49:33;;;;;;;;;;;;;;;;;;5045473;28;20292;-72
2022/01/08 01:51:59;;;;;;;;;;;;;;;;;;5036494;28;19928;-72
2022/01/08 01:54:26;;;;;;;;;;;;;;;;;;5045176;28;20263;-72
2022/01/08 01:56:52;;;;;;;;;;;;;;;;;;5043857;28;20285;-72
2022/01/08 01:59:21;;;;;;;;;;;;;;;;;;5026427;28;19979;-72
2022/01/08 02:01:48;;;;;;;;;;;;;;;;;;5027568;28;20370;-72
2022/01/08 02:04:17;;;;;;;;;;;;;;;;;;5028675;28;19923;-72
2022/01/08 02:06:47;;;;;;;;;;;;;;;;;;5045286;28;19917;-72
2022/01/08 02:09:13;;;;;;;;;;;;;;;;;;5035092;28;19935;-72
2022/01/08 02:11:40;;;;;;;;;;;;;;;;;;5026413;28;20034;-72
2022/01/08 02:14:06;;;;;;;;;;;;;;;;;;5026275;28;20138;-72
2022/01/08 02:16:33;;;;;;;;;;;;;;;;;;5038200;28;19914;-72
2022/01/08 02:18:59;;;;;;;;;;;;;;;;;;5025909;28;19913;-72
2022/01/08 02:21:28;;;;;;;;;;;;;;;;;;5026167;28;19921;-71
2022/01/08 02:23:55;;;;;;;;;;;;;;;;;;5034904;28;20534;-72
2022/01/08 02:26:24;;;;;;;;;;;;;;;;;;5025551;28;19970;-72
2022/01/08 02:28:51;;;;;;;;;;;;;;;;;;5038329;28;19917;-72
2022/01/08 02:31:17;;;;;;;;;;;;;;;;;;5036904;28;19928;-72
2022/01/08 02:33:47;;;;;;;;;;;;;;;;;;5034782;28;20661;-72
2022/01/08 02:36:13;;;;;;;;;;;;;;;;;;5030200;28;19917;-72
2022/01/08 02:38:40;;;;;;;;;;;;;;;;;;5033297;28;19917;-71
2022/01/08 02:41:07;;;;;;;;;;;;;;;;;;5025821;28;19917;-72
2022/01/08 02:43:40;;;;;;;;;;;;;;;;;;5032584;28;19909;-72
2022/01/08 02:46:12;;;;;;;;;;;;;;;;;;5032755;28;19913;-72
2022/01/08 02:48:39;;;;;;;;;;;;;;;;;;5034079;28;19994;-71
2022/01/08 02:51:12;;;;;;;;;;;;;;;;;;5041117;28;19912;-72
2022/01/08 02:53:42;;;;;;;;;;;;;;;;;;5044447;28;19963;-71
2022/01/08 02:56:08;;;;;;;;;;;;;;;;;;5043085;28;20242;-71
2022/01/08 02:58:38;;;;;;;;;;;;;;;;;;5043778;28;20552;-72
2022/01/08 03:01:07;;;;;;;;;;;;;;;;;;5037184;28;19921;-71
2022/01/08 03:03:34;;;;;;;;;;;;;;;;;;5030279;28;20432;-72
2022/01/08 03:06:00;;;;;;;;;;;;;;;;;;5042095;28;19924;-72
2022/01/08 03:08:27;;;;;;;;;;;;;;;;;;5042824;28;20020;-72
2022/01/08 03:10:53;;;;;;;;;;;;;;;;;;5044845;28;19924;-72
2022/01/08 03:13:20;;;;;;;;;;;;;;;;;;5040523;28;19988;-72
2022/01/08 03:15:55;;;;;;;;;;;;;;;;;;5024949;28;20437;-71
2022/01/08 03:18:21;;;;;;;;;;;;;;;;;;5027161;28;20247;-71
2022/01/08 03:21:00;;;;;;;;;;;;;;;;;;5044267;28;19916;-71
2022/01/08 03:23:34;;;;;;;;;;;;;;;;;;5025097;28;19921;-72
2022/01/08 03:26:01;;;;;;;;;;;;;;;;;;5033513;28;19928;-72
2022/01/08 03:28:27;;;;;;;;;;;;;;;;;;5041222;28;19917;-71
2022/01/08 03:30:59;;;;;;;;;;;;;;;;;;5024658;28;20505;-72
2022/01/08 03:33:29;;;;;;;;;;;;;;;;;;5024601;28;19920;-71
2022/01/08 03:35:56;;;;;;;;;;;;;;;;;;5037113;28;19927;-71
2022/01/08 03:38:22;;;;;;;;;;;;;;;;;;5045039;28;19909;-71
2022/01/08 03:40:52;;;;;;;;;;;;;;;;;;5024722;28;19921;-71
2022/01/08 03:43:18;;;;;;;;;;;;;;;;;;5029483;28;19913;-71
2022/01/08 03:45:48;;;;;;;;;;;;;;;;;;5041501;28;19916;-72
2022/01/08 03:48:30;;;;;;;;;;;;;;;;;;5043376;28;19917;-73
2022/01/08 03:51:00;;;;;;;;;;;;;;;;;;5043037;28;19913;-71
2022/01/08 03:53:27;;;;;;;;;;;;;;;;;;5024952;28;20474;-71
2022/01/08 03:55:53;;;;;;;;;;;;;;;;;;5036535;28;19913;-71
2022/01/08 03:58:29;;;;;;;;;;;;;;;;;;5044807;28;19921;-71
2022/01/08 04:00:56;;;;;;;;;;;;;;;;;;5035924;28;20385;-71
2022/01/08 04:03:25;;;;;;;;;;;;;;;;;;5024484;28;20362;-72
2022/01/08 04:06:09;;;;;;;;;;;;;;;;;;5025317;28;19960;-72
2022/01/08 04:08:36;;;;;;;;;;;;;;;;;;5025185;28;20409;-72
2022/01/08 04:11:02;;;;;;;;;;;;;;;;;;5034987;28;20397;-73
2022/01/08 04:13:32;;;;;;;;;;;;;;;;;;5028625;28;19925;-72
2022/01/08 04:16:11;;;;;;;;;;;;;;;;;;5038488;28;19921;-71
2022/01/08 04:18:37;;;;;;;;;;;;;;;;;;5030758;28;20005;-72
2022/01/08 04:23:48;;;;;;;;;;;;;;;;;;5034038;28;19929;-71
2022/01/08 04:26:15;;;;;;;;;;;;;;;;;;5029101;28;20255;-72
2022/01/08 04:28:44;;;;;;;;;;;;;;;;;;5044807;28;20019;-72
2022/01/08 04:31:19;;;;;;;;;;;;;;;;;;5037297;28;19913;-72
2022/01/08 04:33:46;;;;;;;;;;;;;;;;;;5037802;28;19913;-71
2022/01/08 04:36:12;;;;;;;;;;;;;;;;;;5032741;28;19913;-71
2022/01/08 04:38:42;;;;;;;;;;;;;;;;;;5027605;28;19913;-71
2022/01/08 04:41:11;;;;;;;;;;;;;;;;;;5032068;28;19921;-72
2022/01/08 04:43:43;;;;;;;;;;;;;;;;;;5044148;28;19973;-72
2022/01/08 04:46:10;;;;;;;;;;;;;;;;;;5032044;28;19977;-71
2022/01/08 04:48:36;;;;;;;;;;;;;;;;;;5046770;27;19909;-73
2022/01/08 04:51:03;;;;;;;;;;;;;;;;;;5036306;28;19917;-71
2022/01/08 04:53:32;;;;;;;;;;;;;;;;;;5026999;28;20601;-71
2022/01/08 04:55:59;;;;;;;;;;;;;;;;;;5036094;28;19935;-72
2022/01/08 04:58:25;;;;;;;;;;;;;;;;;;5046371;28;20251;-71
2022/01/08 05:00:52;;;;;;;;;;;;;;;;;;5043460;28;19924;-71
2022/01/08 05:03:24;;;;;;;;;;;;;;;;;;5025855;28;20011;-72
2022/01/08 05:05:54;;;;;;;;;;;;;;;;;;5027724;28;19917;-72
2022/01/08 05:08:23;;;;;;;;;;;;;;;;;;5036441;28;19920;-72
2022/01/08 05:10:55;;;;;;;;;;;;;;;;;;5029797;28;20461;-72
2022/01/08 05:13:22;;;;;;;;;;;;;;;;;;5026647;28;19921;-71
2022/01/08 05:15:51;;;;;;;;;;;;;;;;;;5025707;28;20251;-72
2022/01/08 05:18:22;;;;;;;;;;;;;;;;;;5027234;28;20049;-71
2022/01/08 05:20:56;;;;;;;;;;;;;;;;;;5029322;28;19920;-72
2022/01/08 05:23:23;;;;;;;;;;;;;;;;;;5026390;28;19909;-72
2022/01/08 05:25:49;;;;;;;;;;;;;;;;;;5027616;28;20013;-71
2022/01/08 05:28:16;;;;;;;;;;;;;;;;;;5030827;28;19917;-73
2022/01/08 05:30:42;;;;;;;;;;;;;;;;;;5041934;28;19924;-71
2022/01/08 05:33:11;;;;;;;;;;;;;;;;;;5030077;28;19913;-71
2022/01/08 05:35:38;;;;;;;;;;;;;;;;;;5042792;28;20011;-71
2022/01/08 05:38:05;;;;;;;;;;;;;;;;;;5032697;28;19917;-72
2022/01/08 05:40:34;;;;;;;;;;;;;;;;;;5026404;28;20402;-72
2022/01/08 05:43:18;;;;;;;;;;;;;;;;;;5027630;28;19917;-73
2022/01/08 05:45:57;;;;;;;;;;;;;;;;;;5029144;28;19929;-72
2022/01/08 05:48:24;;;;;;;;;;;;;;;;;;5039026;28;19912;-72
2022/01/08 05:50:52;;;;;;;;;;;;;;;;;;5034593;28;19943;-72
2022/01/08 05:53:21;;;;;;;;;;;;;;;;;;5040022;28;19917;-74
2022/01/08 05:55:50;;;;;;;;;;;;;;;;;;5025408;28;20025;-72
2022/01/08 05:58:17;;;;;;;;;;;;;;;;;;5028249;28;20004;-72
2022/01/08 06:00:43;;;;;;;;;;;;;;;;;;5036739;28;19932;-72
2022/01/08 06:03:13;;;;;;;;;;;;;;;;;;5039831;28;19921;-71
2022/01/08 06:05:42;;;;;;;;;;;;;;;;;;5041126;28;19952;-72
2022/01/08 06:08:12;;;;;;;;;;;;;;;;;;5025420;28;19917;-72
2022/01/08 06:10:39;;;;;;;;;;;;;;;;;;5035775;28;20335;-72
2022/01/08 06:13:05;;;;;;;;;;;;;;;;;;5036330;28;19917;-72
2022/01/08 06:15:34;;;;;;;;;;;;;;;;;;5026370;28;19928;-72
2022/01/08 06:18:01;;;;;;;;;;;;;;;;;;5039837;28;20018;-72
2022/01/08 06:20:30;;;;;;;;;;;;;;;;;;5026354;28;19935;-73
2022/01/08 06:22:59;;;;;;;;;;;;;;;;;;5041734;27;20558;-72
2022/01/08 06:25:29;;;;;;;;;;;;;;;;;;5034105;28;19917;-72
2022/01/08 06:27:55;;;;;;;;;;;;;;;;;;5032662;28;19917;-72
2022/01/08 06:30:22;;;;;;;;;;;;;;;;;;5025148;28;19963;-73
2022/01/08 06:32:48;;;;;;;;;;;;;;;;;;5043578;28;20255;-72
2022/01/08 06:35:15;;;;;;;;;;;;;;;;;;5036912;28;20002;-71
2022/01/08 06:37:41;;;;;;;;;;;;;;;;;;5029934;28;19913;-72
2022/01/08 06:40:11;;;;;;;;;;;;;;;;;;5025515;28;19932;-72
2022/01/08 06:42:37;;;;;;;;;;;;;;;;;;5029645;28;19953;-72
2022/01/08 06:45:04;;;;;;;;;;;;;;;;;;5024415;28;19921;-71
2022/01/08 06:47:33;;;;;;;;;;;;;;;;;;5044233;28;19925;-71
2022/01/08 06:50:00;;;;;;;;;;;;;;;;;;5030634;28;20971;-72
2022/01/08 06:52:26;;;;;;;;;;;;;;;;;;5030501;28;19917;-72
2022/01/08 06:54:53;;;;;;;;;;;;;;;;;;5025074;28;19909;-72
2022/01/08 06:57:22;;;;;;;;;;;;;;;;;;5025185;28;19923;-72
2022/01/08 06:59:48;;;;;;;;;;;;;;;;;;5026442;28;19928;-72
2022/01/08 07:02:18;;;;;;;;;;;;;;;;;;5030949;28;20021;-72
2022/01/08 07:05:02;;;;;;;;;;;;;;;;;;5025394;28;19913;-72
2022/01/08 07:07:29;;;;;;;;;;;;;;;;;;5037464;28;20343;-72
2022/01/08 07:09:56;;;;;;;;;;;;;;;;;;5040886;28;19995;-72
2022/01/08 07:12:25;;;;;;;;;;;;;;;;;;5044220;28;20008;-72
2022/01/08 07:14:55;;;;;;;;;;;;;;;;;;5043522;28;19946;-72
2022/01/08 07:17:21;;;;;;;;;;;;;;;;;;5040404;28;19917;-72
2022/01/08 07:19:56;;;;;;;;;;;;;;;;;;5027651;28;20398;-72
2022/01/08 07:22:23;;;;;;;;;;;;;;;;;;5024263;28;19923;-72
2022/01/08 07:24:49;;;;;;;;;;;;;;;;;;5025487;28;20355;-72
2022/01/08 07:27:16;;;;;;;;;;;;;;;;;;5038564;28;20011;-72
2022/01/08 07:29:42;;;;;;;;;;;;;;;;;;5044598;28;19999;-72
2022/01/08 07:32:12;;;;;;;;;;;;;;;;;;5027817;28;20353;-72
2022/01/08 07:34:38;;;;;;;;;;;;;;;;;;5027123;28;19970;-71
2022/01/08 07:37:05;;;;;;;;;;;;;;;;;;5030438;28;19927;-71
2022/01/08 07:39:31;;;;;;;;;;;;;;;;;;5028423;28;19916;-71
2022/01/08 07:42:01;;;;;;;;;;;;;;;;;;5028606;28;19924;-71
2022/01/08 07:44:27;;;;;;;;;;;;;;;;;;5024255;28;20553;-73
2022/01/08 07:46:57;;;;;;;;;;;;;;;;;;5030766;28;19952;-72
2022/01/08 07:49:26;;;;;;;;;;;;;;;;;;5034948;28;20000;-71
2022/01/08 07:51:56;;;;;;;;;;;;;;;;;;5030471;28;20208;-72
2022/01/08 07:54:22;;;;;;;;;;;;;;;;;;5034011;28;19912;-72
2022/01/08 07:56:48;;;;;;;;;;;;;;;;;;5030580;28;19925;-72
2022/01/08 07:59:15;;;;;;;;;;;;;;;;;;5034203;28;19941;-72
2022/01/08 08:01:41;;;;;;;;;;;;;;;;;;5031538;28;19913;-72
2022/01/08 08:04:07;;;;;;;;;;;;;;;;;;5041246;28;19917;-72
2022/01/08 08:06:36;;;;;;;;;;;;;;;;;;5042844;28;19958;-72
2022/01/08 08:09:03;;;;;;;;;;;;;;;;;;5033109;28;20378;-72
2022/01/08 08:11:39;;;;;;;;;;;;;;;;;;;;;
2022/01/08 08:14:06;;;;;;;;;;;;;;;;;;5036142;28;19921;-72
2022/01/08 08:16:32;;;;;;;;;;;;;;;;;;5026428;28;19913;-73
2022/01/08 08:18:59;;;;;;;;;;;;;;;;;;5032337;28;19919;-72
2022/01/08 08:21:25;;;;;;;;;;;;;;;;;;5031792;28;19925;-72
2022/01/08 08:23:55;;;;;;;;;;;;;;;;;;5036803;28;19920;-72
2022/01/08 08:26:23;;;;;;;;;;;;;;;;;;5032841;28;20000;-72
2022/01/08 08:28:50;;;;;;;;;;;;;;;;;;5030803;28;19928;-72
2022/01/08 08:31:16;;;;;;;;;;;;;;;;;;5027944;28;19957;-72
2022/01/08 08:33:43;;;;;;;;;;;;;;;;;;5041392;28;19961;-72
2022/01/08 08:36:12;;;;;;;;;;;;;;;;;;5027844;28;19931;-72
2022/01/08 08:38:39;;;;;;;;;;;;;;;;;;5038009;28;19924;-73
2022/01/08 08:41:08;;;;;;;;;;;;;;;;;;5031900;28;19932;-72
2022/01/08 08:43:35;;;;;;;;;;;;;;;;;;5031562;28;20207;-73
2022/01/08 08:46:04;;;;;;;;;;;;;;;;;;5029405;28;20405;-73
2022/01/08 08:48:30;;;;;;;;;;;;;;;;;;5033536;28;19951;-72
2022/01/08 08:51:00;;;;;;;;;;;;;;;;;;5028984;28;20038;-72
2022/01/08 08:53:26;;;;;;;;;;;;;;;;;;5030268;28;19923;-72
2022/01/08 08:55:55;;;;;;;;;;;;;;;;;;5029718;28;19913;-72
2022/01/08 08:58:22;;;;;;;;;;;;;;;;;;5032266;28;19921;-72
2022/01/08 09:00:54;;;;;;;;;;;;;;;;;;5029046;28;20580;-72
2022/01/08 09:03:21;;;;;;;;;;;;;;;;;;5040755;28;19980;-72
2022/01/08 09:05:48;;;;;;;;;;;;;;;;;;5035805;28;20477;-73
2022/01/08 09:08:14;;;;;;;;;;;;;;;;;;5040469;28;20012;-72
2022/01/08 09:10:40;;;;;;;;;;;;;;;;;;5038549;28;20513;-72
2022/01/08 09:13:10;;;;;;;;;;;;;;;;;;5033232;28;19921;-72
2022/01/08 09:15:41;;;;;;;;;;;;;;;;;;5035181;28;20366;-72
2022/01/08 09:18:07;;;;;;;;;;;;;;;;;;5034416;28;19916;-73
2022/01/08 09:20:33;;;;;;;;;;;;;;;;;;5032052;28;19985;-72
2022/01/08 09:23:06;;;;;;;;;;;;;;;;;;5039424;28;19909;-72
2022/01/08 09:25:34;;;;;;;;;;;;;;;;;;5029365;28;20525;-72
2022/01/08 09:28:01;;;;;;;;;;;;;;;;;;5027542;28;19984;-74
2022/01/08 09:30:27;;;;;;;;;;;;;;;;;;5038766;28;19921;-71
2022/01/08 09:32:56;;;;;;;;;;;;;;;;;;5028124;28;19913;-70
2022/01/08 09:35:22;;;;;;;;;;;;;;;;;;5028025;28;19913;-70
2022/01/08 09:37:49;;;;;;;;;;;;;;;;;;5026771;28;20307;-71
2022/01/08 09:40:18;;;;;;;;;;;;;;;;;;5028279;28;19960;-71
2022/01/08 09:42:45;;;;;;;;;;;;;;;;;;5026919;28;20355;-71
2022/01/08 09:45:14;;;;;;;;;;;;;;;;;;5027593;28;19966;-71
2022/01/08 09:47:43;;;;;;;;;;;;;;;;;;5027891;28;19919;-70
2022/01/08 09:50:12;;;;;;;;;;;;;;;;;;5026642;28;20524;-71
2022/01/08 09:52:39;;;;;;;;;;;;;;;;;;5027503;28;19920;-71
2022/01/08 09:55:14;;;;;;;;;;;;;;;;;;5027867;28;20296;-73
2022/01/08 09:57:43;;;;;;;;;;;;;;;;;;5041903;28;20279;-71
2022/01/08 10:00:10;;;;;;;;;;;;;;;;;;5047879;28;20008;-71
2022/01/08 10:02:40;;;;;;;;;;;;;;;;;;5047496;28;19909;-71
2022/01/08 10:05:07;;;;;;;;;;;;;;;;;;5047664;28;19924;-71
2022/01/08 10:07:33;;;;;;;;;;;;;;;;;;5046681;28;20007;-71
2022/01/08 10:09:59;;;;;;;;;;;;;;;;;;5040449;28;19909;-71
2022/01/08 10:12:26;;;;;;;;;;;;;;;;;;5032063;28;20020;-70
2022/01/08 10:17:37;;;;;;;;;;;;;;;;;;5042082;28;19928;-72
2022/01/08 10:20:03;;;;;;;;;;;;;;;;;;5029909;28;19932;-71
2022/01/08 10:22:35;;;;;;;;;;;;;;;;;;5028892;28;20395;-74
2022/01/08 10:25:01;;;;;;;;;;;;;;;;;;5032970;28;19947;-72
2022/01/08 10:27:28;;;;;;;;;;;;;;;;;;5023445;28;19928;-71
2022/01/08 10:29:54;;;;;;;;;;;;;;;;;;5028732;28;19917;-71
2022/01/08 10:32:24;;;;;;;;;;;;;;;;;;5031359;28;19918;-71
2022/01/08 10:34:53;;;;;;;;;;;;;;;;;;5040877;28;20490;-71
2022/01/08 10:37:23;;;;;;;;;;;;;;;;;;5034742;28;19997;-71
2022/01/08 10:39:52;;;;;;;;;;;;;;;;;;5029393;28;20523;-71
2022/01/08 10:42:19;;;;;;;;;;;;;;;;;;5038964;28;19913;-73
2022/01/08 10:44:46;;;;;;;;;;;;;;;;;;5033361;28;19920;-71
2022/01/08 10:47:16;;;;;;;;;;;;;;;;;;5039372;28;19948;-70
2022/01/08 10:49:42;;;;;;;;;;;;;;;;;;5034225;28;19913;-70
2022/01/08 10:52:09;;;;;;;;;;;;;;;;;;5031985;28;19978;-71
2022/01/08 10:54:35;;;;;;;;;;;;;;;;;;5046661;28;20008;-71
2022/01/08 10:57:02;;;;;;;;;;;;;;;;;;5035993;28;19913;-70
2022/01/08 10:59:32;;;;;;;;;;;;;;;;;;5033315;28;20300;-70
2022/01/08 11:01:58;;;;;;;;;;;;;;;;;;5026693;28;19985;-70
2022/01/08 11:04:34;;;;;;;;;;;;;;;;;;5036339;28;19917;-71
2022/01/08 11:07:00;;;;;;;;;;;;;;;;;;5032903;28;19923;-72
2022/01/08 11:09:30;;;;;;;;;;;;;;;;;;5030483;28;19917;-71
2022/01/08 11:11:56;;;;;;;;;;;;;;;;;;5033369;28;19932;-71
2022/01/08 11:17:07;;;;;;;;;;;;;;;;;;5029532;28;19967;-71
2022/01/08 11:19:35;;;;;;;;;;;;;;;;;;5036645;28;20563;-71
2022/01/08 11:22:01;;;;;;;;;;;;;;;;;;5037151;28;20459;-72
2022/01/08 11:24:40;;;;;;;;;;;;;;;;;;5033665;28;19939;-70
2022/01/08 11:27:07;;;;;;;;;;;;;;;;;;5025893;28;20243;-71
2022/01/08 11:29:36;;;;;;;;;;;;;;;;;;5036832;28;19908;-71
2022/01/08 11:32:06;;;;;;;;;;;;;;;;;;5040707;28;20000;-71
2022/01/08 11:34:37;;;;;;;;;;;;;;;;;;5045846;28;19909;-71
2022/01/08 11:37:04;;;;;;;;;;;;;;;;;;5045651;28;19917;-78
2022/01/08 11:39:30;;;;;;;;;;;;;;;;;;5042014;28;19944;-79
2022/01/08 11:41:57;;;;;;;;;;;;;;;;;;5034646;28;19948;-76
2022/01/08 11:44:26;;;;;;;;;;;;;;;;;;5029763;28;19909;-76
2022/01/08 11:46:52;;;;;;;;;;;;;;;;;;5031009;28;20301;-76
2022/01/08 11:49:19;;;;;;;;;;;;;;;;;;5035550;28;19913;-76
2022/01/08 11:51:48;;;;;;;;;;;;;;;;;;5030189;28;19920;-80
2022/01/08 11:54:15;;;;;;;;;;;;;;;;;;5025526;28;19933;-72
2022/01/08 11:56:42;;;;;;;;;;;;;;;;;;5032811;28;20007;-71
2022/01/08 11:59:12;;;;;;;;;;;;;;;;;;5038667;28;19913;-71
2022/01/08 12:01:38;;;;;;;;;;;;;;;;;;5031812;28;19921;-70
2022/01/08 12:04:05;;;;;;;;;;;;;;;;;;5045660;28;20016;-71
2022/01/08 12:06:34;;;;;;;;;;;;;;;;;;5035332;28;20642;-72
2022/01/08 12:09:43;;;;;;;;;;;;;;;;;;5032123;28;20476;-71
2022/01/08 12:11:50;;;;;;;;;;;;;;;;;;5028615;28;19973;-70
2022/01/08 12:14:16;;;;;;;;;;;;;;;;;;5029463;28;20325;-71
2022/01/08 12:16:48;;;;;;;;;;;;;;;;;;5035171;28;19927;-70
2022/01/08 12:19:14;;;;;;;;;;;;;;;;;;5028245;28;19942;-71
2022/01/08 12:21:44;;;;;;;;;;;;;;;;;;5025176;28;20019;-72
2022/01/08 12:24:10;;;;;;;;;;;;;;;;;;5024912;28;19948;-71
2022/01/08 12:26:37;;;;;;;;;;;;;;;;;;5025629;28;19917;-70
2022/01/08 12:29:03;;;;;;;;;;;;;;;;;;5032546;28;19908;-72
2022/01/08 12:31:41;;;;;;;;;;;;;;;;;;;;;
2022/01/08 12:34:08;;;;;;;;;;;;;;;;;;5037122;28;19917;-70
2022/01/08 12:36:37;;;;;;;;;;;;;;;;;;5047193;28;19963;-71
2022/01/08 12:39:04;;;;;;;;;;;;;;;;;;5031747;28;19931;-70
2022/01/08 12:41:31;;;;;;;;;;;;;;;;;;5043624;28;19916;-70
2022/01/08 12:44:01;;;;;;;;;;;;;;;;;;5042606;28;19917;-70
2022/01/08 12:46:27;;;;;;;;;;;;;;;;;;5039022;28;20322;-70
2022/01/08 12:48:54;;;;;;;;;;;;;;;;;;5039448;28;19913;-70
2022/01/08 12:51:24;;;;;;;;;;;;;;;;;;5029766;28;19943;-71
2022/01/08 12:53:51;;;;;;;;;;;;;;;;;;5031548;28;19927;-70
2022/01/08 12:56:17;;;;;;;;;;;;;;;;;;5028419;28;19956;-71
2022/01/08 12:58:47;;;;;;;;;;;;;;;;;;5028010;28;20325;-70
2022/01/08 13:01:13;;;;;;;;;;;;;;;;;;5027593;28;20537;-71
2022/01/08 13:03:40;;;;;;;;;;;;;;;;;;5033634;28;19962;-70
2022/01/08 13:06:15;;;;;;;;;;;;;;;;;;5029783;28;19983;-70
2022/01/08 13:08:41;;;;;;;;;;;;;;;;;;5031287;28;19928;-70
2022/01/08 13:11:08;;;;;;;;;;;;;;;;;;5040279;28;20041;-70
2022/01/08 13:13:34;;;;;;;;;;;;;;;;;;5029325;28;20351;-71
2022/01/08 13:16:00;;;;;;;;;;;;;;;;;;5037298;28;19913;-70
2022/01/08 13:18:30;;;;;;;;;;;;;;;;;;5036631;28;20276;-70
2022/01/08 13:20:56;;;;;;;;;;;;;;;;;;5086252;27;20320;-70
2022/01/08 13:23:23;;;;;;;;;;;;;;;;;;5037722;28;19951;-70
2022/01/08 13:25:49;;;;;;;;;;;;;;;;;;5046921;28;19909;-70
2022/01/08 13:28:16;;;;;;;;;;;;;;;;;;5045391;28;19922;-71
2022/01/08 13:30:45;;;;;;;;;;;;;;;;;;5042439;28;19932;-71
2022/01/08 13:33:14;;;;;;;;;;;;;;;;;;5035100;28;20557;-70
2022/01/08 13:35:44;;;;;;;;;;;;;;;;;;5030236;28;20672;-71
2022/01/08 13:38:10;;;;;;;;;;;;;;;;;;5036135;28;19924;-70
2022/01/08 13:40:37;;;;;;;;;;;;;;;;;;5037604;28;19925;-70
2022/01/08 13:43:03;;;;;;;;;;;;;;;;;;5031887;28;20003;-70
2022/01/08 13:45:33;;;;;;;;;;;;;;;;;;5046752;28;19913;-70
2022/01/08 13:48:10;;;;;;;;;;;;;;;;;;5046186;28;20295;-70
2022/01/08 13:50:39;;;;;;;;;;;;;;;;;;5026618;28;20339;-69
2022/01/08 13:53:05;;;;;;;;;;;;;;;;;;5031021;28;19920;-70
2022/01/08 13:56:16;;;;;;;;;;;;;;;;;;5035364;28;19913;-70
2022/01/08 13:58:25;;;;;;;;;;;;;;;;;;5020518;28;20352;-70
2022/01/08 14:00:54;;;;;;;;;;;;;;;;;;5028610;28;20554;-72
2022/01/08 14:03:20;;;;;;;;;;;;;;;;;;5047053;28;19909;-71
2022/01/08 14:05:50;;;;;;;;;;;;;;;;;;5043240;28;20343;-72
2022/01/08 14:08:16;;;;;;;;;;;;;;;;;;5031899;28;20328;-70
2022/01/08 14:10:45;;;;;;;;;;;;;;;;;;5026779;28;19920;-70
2022/01/08 14:13:12;;;;;;;;;;;;;;;;;;5041547;28;20007;-71
2022/01/08 14:15:41;;;;;;;;;;;;;;;;;;5029382;28;19993;-70
2022/01/08 14:18:08;;;;;;;;;;;;;;;;;;5032043;28;19924;-69
2022/01/08 14:20:34;;;;;;;;;;;;;;;;;;5026745;28;20029;-70
2022/01/08 14:23:01;;;;;;;;;;;;;;;;;;5032840;28;19931;-70
2022/01/08 14:25:30;;;;;;;;;;;;;;;;;;5034794;28;19921;-72
2022/01/08 14:28:00;;;;;;;;;;;;;;;;;;5038523;28;20232;-69
2022/01/08 14:30:26;;;;;;;;;;;;;;;;;;5038315;28;19921;-69
2022/01/08 14:32:52;;;;;;;;;;;;;;;;;;5026038;28;19909;-70
2022/01/08 14:35:22;;;;;;;;;;;;;;;;;;5035548;28;19952;-69
2022/01/08 14:37:51;;;;;;;;;;;;;;;;;;5029535;28;19913;-69
2022/01/08 14:40:21;;;;;;;;;;;;;;;;;;5037312;28;19925;-69
2022/01/08 14:42:47;;;;;;;;;;;;;;;;;;5042690;28;20167;-70
2022/01/08 14:45:20;;;;;;;;;;;;;;;;;;5042773;28;19923;-72
2022/01/08 14:47:49;;;;;;;;;;;;;;;;;;5026252;28;19954;-70
2022/01/08 14:50:25;;;;;;;;;;;;;;;;;;5032696;28;19921;-70
2022/01/08 14:53:00;;;;;;;;;;;;;;;;;;5026191;28;20502;-70
2022/01/08 14:55:27;;;;;;;;;;;;;;;;;;5034687;28;20442;-70
2022/01/08 14:57:54;;;;;;;;;;;;;;;;;;5025327;28;19952;-69
2022/01/08 15:00:21;;;;;;;;;;;;;;;;;;5043308;28;19921;-69
2022/01/08 15:02:47;;;;;;;;;;;;;;;;;;5038305;28;19913;-69
2022/01/08 15:05:14;;;;;;;;;;;;;;;;;;5025709;28;19916;-70
2022/01/08 15:07:43;;;;;;;;;;;;;;;;;;5025314;28;19966;-70
2022/01/08 15:10:09;;;;;;;;;;;;;;;;;;5025754;28;20005;-70
2022/01/08 15:12:42;;;;;;;;;;;;;;;;;;5043627;28;19913;-69
2022/01/08 15:15:08;;;;;;;;;;;;;;;;;;5043130;28;20020;-70
2022/01/08 15:17:41;;;;;;;;;;;;;;;;;;5033558;28;19917;-70
2022/01/08 15:20:07;;;;;;;;;;;;;;;;;;5028890;28;19959;-69
2022/01/08 15:22:34;;;;;;;;;;;;;;;;;;5025436;28;19910;-69
2022/01/08 15:25:00;;;;;;;;;;;;;;;;;;5027151;28;19921;-69
2022/01/08 15:27:27;;;;;;;;;;;;;;;;;;5025328;28;20020;-70
2022/01/08 15:29:55;;;;;;;;;;;;;;;;;;5037426;28;19917;-69
2022/01/08 15:32:31;;;;;;;;;;;;;;;;;;;;;
2022/01/08 15:35:00;;;;;;;;;;;;;;;;;;5043804;28;19919;-69
2022/01/08 15:37:26;;;;;;;;;;;;;;;;;;5032495;28;19923;-69
2022/01/08 15:39:53;;;;;;;;;;;;;;;;;;5025000;28;19921;-69
2022/01/08 15:42:19;;;;;;;;;;;;;;;;;;5031644;28;19913;-69
2022/01/08 15:44:45;;;;;;;;;;;;;;;;;;5030858;28;19934;-69
2022/01/08 15:47:12;;;;;;;;;;;;;;;;;;5042991;28;19920;-69
2022/01/08 15:49:38;;;;;;;;;;;;;;;;;;5036716;28;19948;-69
2022/01/08 15:52:08;;;;;;;;;;;;;;;;;;5040629;28;19913;-70
2022/01/08 15:54:34;;;;;;;;;;;;;;;;;;5026733;28;19920;-69
2022/01/08 15:57:04;;;;;;;;;;;;;;;;;;5033420;28;19921;-69
2022/01/08 15:59:36;;;;;;;;;;;;;;;;;;5026303;28;20438;-69
2022/01/08 16:02:06;;;;;;;;;;;;;;;;;;5025707;28;19929;-69
2022/01/08 16:04:32;;;;;;;;;;;;;;;;;;5035400;28;19913;-70
2022/01/08 16:07:01;;;;;;;;;;;;;;;;;;5027264;28;20297;-69
2022/01/08 16:09:28;;;;;;;;;;;;;;;;;;5032196;28;19944;-69
2022/01/08 16:11:54;;;;;;;;;;;;;;;;;;5042081;28;19913;-70
2022/01/08 16:14:21;;;;;;;;;;;;;;;;;;5028202;28;20009;-70
2022/01/08 16:16:47;;;;;;;;;;;;;;;;;;5029231;28;19917;-69
2022/01/08 16:19:14;;;;;;;;;;;;;;;;;;5030396;28;19917;-69
2022/01/08 16:21:41;;;;;;;;;;;;;;;;;;5040820;28;20398;-70
2022/01/08 16:24:07;;;;;;;;;;;;;;;;;;5038038;28;19964;-69
2022/01/08 16:26:33;;;;;;;;;;;;;;;;;;5028344;28;19917;-69
2022/01/08 16:29:03;;;;;;;;;;;;;;;;;;5029288;28;20303;-69
2022/01/08 16:31:29;;;;;;;;;;;;;;;;;;5033690;28;20289;-70
2022/01/08 16:33:55;;;;;;;;;;;;;;;;;;5032098;28;20270;-70
2022/01/08 16:36:22;;;;;;;;;;;;;;;;;;5027641;28;19924;-70
2022/01/08 16:38:48;;;;;;;;;;;;;;;;;;5039480;28;19956;-69
2022/01/08 16:41:15;;;;;;;;;;;;;;;;;;5028184;28;20433;-70
2022/01/08 16:43:41;;;;;;;;;;;;;;;;;;5028813;28;20256;-70
2022/01/08 16:46:11;;;;;;;;;;;;;;;;;;5025957;28;20394;-71
2022/01/08 16:48:40;;;;;;;;;;;;;;;;;;5027606;28;20361;-70
2022/01/08 16:51:07;;;;;;;;;;;;;;;;;;5027002;28;19947;-70
2022/01/08 16:53:38;;;;;;;;;;;;;;;;;;5037437;28;19921;-69
2022/01/08 16:56:07;;;;;;;;;;;;;;;;;;5042128;28;19937;-70
2022/01/08 16:58:34;;;;;;;;;;;;;;;;;;5043726;28;20458;-70
2022/01/08 17:01:00;;;;;;;;;;;;;;;;;;5029588;28;19925;-70
2022/01/08 17:03:31;;;;;;;;;;;;;;;;;;5026903;28;19910;-69
2022/01/08 17:06:03;;;;;;;;;;;;;;;;;;5036092;28;19917;-70
2022/01/08 17:08:29;;;;;;;;;;;;;;;;;;5027275;28;19914;-70
2022/01/08 17:10:57;;;;;;;;;;;;;;;;;;5035507;28;19921;-70
2022/01/08 17:13:29;;;;;;;;;;;;;;;;;;5026833;28;19925;-70
2022/01/08 17:15:59;;;;;;;;;;;;;;;;;;5029505;28;20453;-70
2022/01/08 17:18:28;;;;;;;;;;;;;;;;;;5026877;28;20021;-69